Time;durP1;ratioP1;P1;durP2;ratioP2;P2;SDS_P1;SDS_P2;PMS_P1;PMS_P2;Temp;Humidity;BMP_temperature;BMP_pressure;BME280_temperature;BME280_humidity;BME280_pressure;Samples;Min_cycle;Max_cycle;Signal;HPM_P1;HPM_P2
2021/04/16 00:00:35;;;;;;;;;;;;;;;6.87;52.41;102217.81;5054814;28;20336;-74
2021/04/16 00:03:06;;;;;;;;;;;;;;;6.99;52.08;102221.25;5047675;28;20363;-70
2021/04/16 00:10:07;;;;;;;;;;;;;;;6.45;54.23;102217.44;5054842;28;19917;-71
2021/04/16 00:12:33;;;;;;;;;;;;;;;6.37;54.18;102211.56;5054548;28;19928;-72
2021/04/16 00:15:00;;;;;;;;;;;;;;;6.66;53.23;102215.84;5003606;28;19921;-74
2021/04/16 00:17:27;;;;;;;;;;;;;;;6.71;53.42;102214.00;5053937;28;19920;-71
2021/04/16 00:19:54;;;;;;;;;;;;;;;6.59;53.30;102212.47;5054540;28;19927;-71
2021/04/16 00:22:26;;;;;;;;;;;;;;;6.85;52.76;102204.38;5052529;28;20371;-71
2021/04/16 00:24:53;;;;;;;;;;;;;;;6.71;52.94;102214.00;5037041;28;19921;-74
2021/04/16 00:27:20;;;;;;;;;;;;;;;6.60;53.36;102203.19;5054894;28;19921;-73
2021/04/16 00:29:46;;;;;;;;;;;;;;;6.53;53.57;102203.34;5036960;28;19920;-75
2021/04/16 00:32:13;;;;;;;;;;;;;;;6.41;53.85;102199.03;5054157;28;19921;-72
2021/04/16 00:34:40;;;;;;;;;;;;;;;6.26;54.06;102207.03;5054647;28;19921;-74
2021/04/16 00:37:07;;;;;;;;;;;;;;;5.99;55.24;102200.53;5054536;28;20351;-73
2021/04/16 00:39:40;;;;;;;;;;;;;;;6.27;54.34;102193.09;5054462;28;19920;-73
2021/04/16 00:42:07;;;;;;;;;;;;;;;5.92;55.08;102195.22;5053957;28;19927;-73
2021/04/16 00:44:35;;;;;;;;;;;;;;;6.09;55.12;102195.22;5055483;28;20398;-70
2021/04/16 00:47:02;;;;;;;;;;;;;;;6.29;54.79;102184.63;5054448;28;19927;-73
2021/04/16 00:49:31;;;;;;;;;;;;;;;6.36;54.56;102193.50;5054076;28;19927;-73
2021/04/16 00:52:02;;;;;;;;;;;;;;;6.25;54.98;102187.03;5036792;28;19935;-73
2021/04/16 00:54:32;;;;;;;;;;;;;;;5.87;55.50;102192.41;5037409;28;19921;-74
2021/04/16 00:56:59;;;;;;;;;;;;;;;6.06;55.75;102184.78;5036270;28;19928;-70
2021/04/16 00:59:30;;;;;;;;;;;;;;;6.13;55.20;102189.03;5019652;28;19921;-72
2021/04/16 01:02:15;;;;;;;;;;;;;;;6.03;55.98;102186.13;5053771;28;19924;-70
2021/04/16 01:04:42;;;;;;;;;;;;;;;5.97;55.61;102184.38;5053860;28;19921;-73
2021/04/16 01:07:08;;;;;;;;;;;;;;;5.74;56.57;102179.81;5035834;28;19920;-75
2021/04/16 01:09:35;;;;;;;;;;;;;;;5.98;56.14;102177.81;5016929;28;19940;-69
2021/04/16 01:12:03;;;;;;;;;;;;;;;6.17;55.35;102172.94;5053344;28;19921;-68
2021/04/16 01:14:31;;;;;;;;;;;;;;;6.02;55.39;102176.25;5035648;28;19928;-73
2021/04/16 01:16:58;;;;;;;;;;;;;;;6.25;55.11;102170.63;5035804;28;19931;-72
2021/04/16 01:19:29;;;;;;;;;;;;;;;6.04;55.44;102178.72;5053262;28;19920;-74
2021/04/16 01:21:57;;;;;;;;;;;;;;;5.77;56.50;102173.03;5067645;28;19932;-74
2021/04/16 01:24:31;;;;;;;;;;;;;;;5.95;56.18;102182.94;5035166;28;19921;-72
2021/04/16 01:27:10;;;;;;;;;;;;;;;6.01;56.44;102177.34;5052690;28;20295;-70
2021/04/16 01:29:41;;;;;;;;;;;;;;;6.05;55.72;102183.13;5036103;28;19943;-70
2021/04/16 01:32:09;;;;;;;;;;;;;;;6.09;55.73;102181.53;5035312;28;19921;-72
2021/04/16 01:34:35;;;;;;;;;;;;;;;6.09;55.60;102182.38;5035074;28;19921;-67
2021/04/16 01:37:02;;;;;;;;;;;;;;;6.02;55.64;102178.97;5035744;28;19944;-73
2021/04/16 01:39:30;;;;;;;;;;;;;;;6.01;55.57;102173.75;5050916;28;19921;-71
2021/04/16 01:41:56;;;;;;;;;;;;;;;5.91;55.75;102179.88;5035244;28;19928;-73
2021/04/16 01:44:24;;;;;;;;;;;;;;;5.92;55.56;102173.34;5053627;28;19924;-72
2021/04/16 01:47:10;;;;;;;;;;;;;;;5.85;55.67;102178.13;5053039;28;19916;-73
2021/04/16 01:49:41;;;;;;;;;;;;;;;5.53;56.68;102171.50;5052674;28;19921;-71
2021/04/16 01:52:10;;;;;;;;;;;;;;;5.53;56.49;102171.50;5051761;28;19921;-73
2021/04/16 01:54:41;;;;;;;;;;;;;;;5.62;56.79;102170.03;5052102;28;20291;-72
2021/04/16 01:57:09;;;;;;;;;;;;;;;5.67;56.52;102168.22;5035312;28;20307;-72
2021/04/16 01:59:37;;;;;;;;;;;;;;;5.95;55.92;102172.00;5052877;28;19920;-69
2021/04/16 02:02:05;;;;;;;;;;;;;;;5.79;55.84;102164.59;5052736;28;20359;-71
2021/04/16 02:04:32;;;;;;;;;;;;;;;5.92;55.65;102176.06;5052842;28;19932;-69
2021/04/16 02:06:59;;;;;;;;;;;;;;;5.67;56.20;102173.69;5052097;28;19932;-69
2021/04/16 02:09:27;;;;;;;;;;;;;;;5.64;56.21;102181.53;5052528;28;20259;-67
2021/04/16 02:11:54;;;;;;;;;;;;;;;5.57;56.72;102172.66;5052322;28;19925;-72
2021/04/16 02:14:23;;;;;;;;;;;;;;;5.52;57.09;102167.94;5035015;28;20272;-71
2021/04/16 02:16:50;;;;;;;;;;;;;;;5.48;56.89;102165.94;5052430;28;20371;-73
2021/04/16 02:19:18;;;;;;;;;;;;;;;5.28;57.95;102163.63;5051638;28;19928;-73
2021/04/16 02:25:56;;;;;;;;;;;;;;;5.21;58.46;102159.41;5052328;28;19947;-71
2021/04/16 02:28:23;;;;;;;;;;;;;;;5.30;58.09;102177.06;5052719;28;19921;-72
2021/04/16 02:30:49;;;;;;;;;;;;;;;5.19;58.73;102164.28;5050509;28;20360;-73
2021/04/16 02:33:16;;;;;;;;;;;;;;;5.32;58.26;102162.06;5067639;28;19939;-70
2021/04/16 02:35:43;;;;;;;;;;;;;;;5.33;58.29;102168.38;5050427;28;20391;-69
2021/04/16 02:38:12;;;;;;;;;;;;;;;5.33;58.22;102168.38;5019148;28;19920;-72
2021/04/16 02:40:39;;;;;;;;;;;;;;;5.62;57.42;102170.03;5052152;28;19928;-72
2021/04/16 02:43:05;;;;;;;;;;;;;;;5.34;58.07;102162.66;5034344;28;20359;-71
2021/04/16 02:45:32;;;;;;;;;;;;;;;5.19;58.29;102167.84;5052046;28;20452;-72
2021/04/16 02:47:58;;;;;;;;;;;;;;;5.31;58.16;102170.53;5056093;28;20256;-73
2021/04/16 02:50:27;;;;;;;;;;;;;;;5.29;58.22;102162.56;5055844;28;19939;-75
2021/04/16 02:52:54;;;;;;;;;;;;;;;5.33;57.95;102165.66;5056651;28;19931;-70
2021/04/16 02:55:20;;;;;;;;;;;;;;;5.37;58.08;102161.38;5039982;28;19920;-70
2021/04/16 02:57:47;;;;;;;;;;;;;;;5.35;57.78;102158.03;5055108;28;19928;-73
2021/04/16 03:00:19;;;;;;;;;;;;;;;5.47;57.68;102158.81;5037635;28;19921;-70
2021/04/16 03:02:46;;;;;;;;;;;;;;;5.47;57.41;102164.28;5056023;28;19921;-71
2021/04/16 03:05:13;;;;;;;;;;;;;;;5.31;58.10;102152.25;5038143;28;20262;-72
2021/04/16 03:07:39;;;;;;;;;;;;;;;5.22;58.17;102159.16;5037167;28;20284;-73
2021/04/16 03:10:16;;;;;;;;;;;;;;;5.29;57.93;102162.56;5053810;28;20363;-72
2021/04/16 03:12:42;;;;;;;;;;;;;;;5.34;58.17;102150.91;5055277;28;19928;-71
2021/04/16 03:15:09;;;;;;;;;;;;;;;5.42;57.45;102156.81;5055192;28;20295;-75
2021/04/16 03:17:36;;;;;;;;;;;;;;;5.27;57.57;102159.25;5055289;28;19921;-73
2021/04/16 03:20:04;;;;;;;;;;;;;;;5.47;57.51;102156.91;5037846;28;19928;-70
2021/04/16 03:22:31;;;;;;;;;;;;;;;5.62;57.10;102154.47;5055569;28;20363;-71
2021/04/16 03:24:58;;;;;;;;;;;;;;;5.46;57.05;102151.69;5055187;28;19920;-72
2021/04/16 03:27:25;;;;;;;;;;;;;;;5.37;57.31;102155.91;5055121;28;19924;-72
2021/04/16 03:29:54;;;;;;;;;;;;;;;5.36;57.61;102163.25;5055907;28;19928;-70
2021/04/16 03:32:21;;;;;;;;;;;;;;;5.23;57.77;102143.59;5056441;28;19921;-72
2021/04/16 03:34:48;;;;;;;;;;;;;;;5.24;57.65;102156.19;5039503;28;20375;-72
2021/04/16 03:41:36;;;;;;;;;;;;;;;5.26;57.58;102148.56;5055588;28;20287;-69
2021/04/16 03:44:05;;;;;;;;;;;;;;;5.31;57.53;102148.66;5055099;28;19927;-70
2021/04/16 03:46:36;;;;;;;;;;;;;;;4.98;58.31;102143.91;5053394;28;19948;-68
2021/04/16 03:49:03;;;;;;;;;;;;;;;5.07;58.39;102155.28;5052885;28;19920;-70
2021/04/16 03:51:30;;;;;;;;;;;;;;;5.11;58.11;102143.63;5055528;28;19928;-70
2021/04/16 03:53:58;;;;;;;;;;;;;;;4.98;58.23;102156.72;5055679;28;19928;-70
2021/04/16 03:56:43;;;;;;;;;;;;;;;5.08;58.24;102154.19;5055066;28;19923;-67
2021/04/16 03:59:09;;;;;;;;;;;;;;;5.38;57.10;102146.63;5037077;28;19921;-68
2021/04/16 04:01:36;;;;;;;;;;;;;;;5.29;57.27;102153.53;5054607;28;19920;-66
2021/04/16 04:04:04;;;;;;;;;;;;;;;5.21;57.67;102156.66;5054696;28;19920;-68
2021/04/16 04:06:30;;;;;;;;;;;;;;;5.26;57.49;102156.75;5053607;28;19928;-67
2021/04/16 04:09:00;;;;;;;;;;;;;;;5.36;57.12;102160.53;5052352;28;19920;-67
2021/04/16 04:11:27;;;;;;;;;;;;;;;5.33;57.18;102163.75;5054741;28;19927;-67
2021/04/16 04:13:54;;;;;;;;;;;;;;;5.28;57.09;102155.44;5053620;28;19921;-66
2021/04/16 04:16:22;;;;;;;;;;;;;;;5.51;56.63;102163.53;5054956;28;19928;-71
2021/04/16 04:18:58;;;;;;;;;;;;;;;5.54;56.07;102162.22;5056407;28;19936;-68
2021/04/16 04:21:25;;;;;;;;;;;;;;;5.25;56.88;102153.19;5054521;28;19925;-67
2021/04/16 04:23:54;;;;;;;;;;;;;;;5.14;57.13;102153.25;5054706;28;19927;-70
2021/04/16 04:26:20;;;;;;;;;;;;;;;5.24;57.23;102165.22;5054315;28;19921;-69
2021/04/16 04:28:50;;;;;;;;;;;;;;;5.17;57.33;102160.94;5054898;28;19920;-74
2021/04/16 04:31:17;;;;;;;;;;;;;;;5.13;57.44;102155.13;5069872;28;19921;-74
2021/04/16 04:33:44;;;;;;;;;;;;;;;5.10;57.06;102152.91;5053846;28;19925;-67
2021/04/16 04:36:29;;;;;;;;;;;;;;;5.07;57.41;102160.75;5036195;28;19916;-70
2021/04/16 04:39:00;;;;;;;;;;;;;;;5.04;57.77;102167.50;5054244;28;19920;-68
2021/04/16 04:41:29;;;;;;;;;;;;;;;5.06;57.77;102167.25;5054076;28;19947;-67
2021/04/16 04:43:56;;;;;;;;;;;;;;;5.06;57.49;102167.25;5053825;28;19925;-73
2021/04/16 04:46:23;;;;;;;;;;;;;;;5.16;57.38;102167.50;5054432;28;19988;-74
2021/04/16 04:48:50;;;;;;;;;;;;;;;5.35;57.09;102164.31;5054086;28;19921;-70
2021/04/16 04:51:17;;;;;;;;;;;;;;;5.15;57.30;102161.19;5036050;28;19921;-71
2021/04/16 04:53:44;;;;;;;;;;;;;;;5.37;57.16;102164.09;5053900;28;19932;-72
2021/04/16 04:56:27;;;;;;;;;;;;;;;4.95;58.69;102176.34;5053254;28;19921;-71
2021/04/16 04:59:02;;;;;;;;;;;;;;;5.09;58.57;102172.25;5053468;28;19943;-74
2021/04/16 05:01:32;;;;;;;;;;;;;;;5.18;57.85;102174.34;5054056;28;19928;-73
2021/04/16 05:03:59;;;;;;;;;;;;;;;4.90;59.40;102178.97;5035678;28;19921;-70
2021/04/16 05:06:26;;;;;;;;;;;;;;;5.20;58.71;102183.16;5053696;28;20367;-69
2021/04/16 05:08:52;;;;;;;;;;;;;;;5.22;58.04;102177.44;5053277;28;19928;-69
2021/04/16 05:11:19;;;;;;;;;;;;;;;5.07;58.25;102190.78;5053646;28;20027;-71
2021/04/16 05:13:52;;;;;;;;;;;;;;;5.07;58.54;102185.31;5035340;28;19932;-70
2021/04/16 05:16:36;;;;;;;;;;;;;;;5.19;57.96;102186.97;5053360;28;19917;-70
2021/04/16 05:19:21;;;;;;;;;;;;;;;5.29;57.94;102178.13;5053553;28;19917;-72
2021/04/16 05:21:49;;;;;;;;;;;;;;;5.34;57.58;102178.22;5035913;28;19920;-73
2021/04/16 05:24:17;;;;;;;;;;;;;;;5.29;57.68;102178.13;5053906;28;19924;-75
2021/04/16 05:26:43;;;;;;;;;;;;;;;5.31;57.27;102179.56;5054071;28;19925;-72
2021/04/16 05:29:10;;;;;;;;;;;;;;;5.40;57.07;102174.53;5053491;28;20406;-71
2021/04/16 05:31:37;;;;;;;;;;;;;;;5.37;57.02;102189.50;5050350;28;20363;-72
2021/04/16 05:34:10;;;;;;;;;;;;;;;5.15;57.80;102179.47;5052173;28;19921;-71
2021/04/16 05:36:40;;;;;;;;;;;;;;;5.56;56.43;102177.28;5034194;28;19944;-70
2021/04/16 05:39:07;;;;;;;;;;;;;;;5.41;56.90;102181.63;5051662;28;19928;-69
2021/04/16 05:41:35;;;;;;;;;;;;;;;5.51;56.18;102182.66;5053798;28;19937;-72
2021/04/16 05:44:20;;;;;;;;;;;;;;;5.29;57.27;102189.88;5054307;28;19924;-70
2021/04/16 05:46:47;;;;;;;;;;;;;;;5.27;57.54;102193.91;5018463;28;19920;-71
2021/04/16 05:49:35;;;;;;;;;;;;;;;5.17;57.87;102194.56;5051200;28;19917;-70
2021/04/16 05:52:02;;;;;;;;;;;;;;;5.49;56.91;102193.00;5052228;28;19920;-69
2021/04/16 05:54:29;;;;;;;;;;;;;;;5.21;57.28;102190.25;5052367;28;19922;-73
2021/04/16 05:57:05;;;;;;;;;;;;;;;5.10;58.02;102196.59;5051414;28;20284;-71
2021/04/16 05:59:31;;;;;;;;;;;;;;;5.17;58.14;102202.75;5035446;28;19920;-69
2021/04/16 06:02:01;;;;;;;;;;;;;;;5.14;58.06;102205.97;5050105;28;20004;-69
2021/04/16 06:04:28;;;;;;;;;;;;;;;5.31;57.68;102208.75;5052878;28;19921;-72
2021/04/16 06:07:19;;;;;;;;;;;;;;;5.04;58.40;102208.47;5038154;28;19921;-70
2021/04/16 06:09:46;;;;;;;;;;;;;;;4.92;58.23;102215.00;5052082;28;20288;-69
2021/04/16 06:12:13;;;;;;;;;;;;;;;5.09;58.14;102213.22;5034699;28;20287;-68
2021/04/16 06:14:40;;;;;;;;;;;;;;;4.97;58.42;102212.44;5052509;28;19936;-69
2021/04/16 06:17:08;;;;;;;;;;;;;;;5.13;58.21;102211.66;5052366;28;19925;-69
2021/04/16 06:19:35;;;;;;;;;;;;;;;5.27;57.82;102210.31;5052261;28;19932;-67
2021/04/16 06:22:04;;;;;;;;;;;;;;;5.65;56.67;102203.16;5037257;28;19921;-69
2021/04/16 06:24:31;;;;;;;;;;;;;;;5.44;56.90;102208.50;5056231;28;19942;-70
2021/04/16 06:26:58;;;;;;;;;;;;;;;5.45;57.00;102205.53;5057315;28;19921;-73
2021/04/16 06:29:39;;;;;;;;;;;;;;;5.14;57.66;102216.91;5055688;28;19927;-73
2021/04/16 06:32:06;;;;;;;;;;;;;;;5.06;57.99;102211.78;5056657;28;19921;-70
2021/04/16 06:34:33;;;;;;;;;;;;;;;5.33;57.43;102207.47;5056931;28;20329;-72
2021/04/16 06:37:00;;;;;;;;;;;;;;;5.60;56.82;102208.53;5056959;28;20380;-68
2021/04/16 06:39:29;;;;;;;;;;;;;;;5.73;56.50;102201.94;5055656;28;19928;-67
2021/04/16 06:41:57;;;;;;;;;;;;;;;5.81;56.33;102204.28;5038101;28;19921;-67
2021/04/16 06:44:28;;;;;;;;;;;;;;;5.72;55.55;102201.13;5039906;28;19924;-66
2021/04/16 06:47:03;;;;;;;;;;;;;;;5.42;56.40;102203.25;5038619;28;20050;-69
2021/04/16 06:49:30;;;;;;;;;;;;;;;5.63;56.36;102205.31;5022902;28;19920;-70
2021/04/16 06:52:06;;;;;;;;;;;;;;;5.59;56.80;102206.06;5021738;28;19920;-67
2021/04/16 06:54:42;;;;;;;;;;;;;;;5.72;55.88;102208.47;5055705;28;19928;-65
2021/04/16 06:57:16;;;;;;;;;;;;;;;6.10;55.16;102203.19;5055174;28;19921;-69
2021/04/16 06:59:44;;;;;;;;;;;;;;;6.24;54.54;102204.50;5038226;28;20352;-68
2021/04/16 07:02:11;;;;;;;;;;;;;;;6.14;54.49;102212.56;5053935;28;19932;-70
2021/04/16 07:04:42;;;;;;;;;;;;;;;6.13;54.60;102213.66;5038052;28;20344;-68
2021/04/16 07:07:23;;;;;;;;;;;;;;;6.03;54.37;102213.47;5038847;28;20363;-67
2021/04/16 07:09:51;;;;;;;;;;;;;;;5.86;54.33;102209.06;5038516;28;19921;-71
2021/04/16 07:12:21;;;;;;;;;;;;;;;6.15;53.94;102216.13;5038405;28;20240;-70
2021/04/16 07:14:48;;;;;;;;;;;;;;;5.78;54.35;102209.41;5056309;28;19928;-72
2021/04/16 07:17:37;;;;;;;;;;;;;;;5.73;54.86;102205.53;5036590;28;19916;-69
2021/04/16 07:20:05;;;;;;;;;;;;;;;5.90;54.63;102212.94;5037637;28;19932;-70
2021/04/16 07:22:45;;;;;;;;;;;;;;;5.84;55.01;102208.47;5039140;28;19925;-72
2021/04/16 07:25:21;;;;;;;;;;;;;;;5.84;54.98;102211.19;5038310;28;20284;-68
2021/04/16 07:27:49;;;;;;;;;;;;;;;6.05;54.39;102210.50;5054937;28;19931;-70
2021/04/16 07:30:25;;;;;;;;;;;;;;;6.31;54.19;102202.44;5054605;28;19921;-72
2021/04/16 07:32:51;;;;;;;;;;;;;;;6.43;53.19;102205.91;5054826;28;19944;-72
2021/04/16 07:35:39;;;;;;;;;;;;;;;6.18;53.80;102202.78;5056279;28;19920;-70
2021/04/16 07:38:14;;;;;;;;;;;;;;;6.13;53.76;102208.19;5054957;28;19920;-71
2021/04/16 07:40:47;;;;;;;;;;;;;;;6.12;54.28;102205.69;5037893;28;19921;-71
2021/04/16 07:43:15;;;;;;;;;;;;;;;6.41;53.34;102201.78;5070424;28;19927;-70
2021/04/16 07:45:46;;;;;;;;;;;;;;;6.43;53.04;102203.19;5037651;28;19947;-67
2021/04/16 07:48:15;;;;;;;;;;;;;;;6.56;52.50;102202.84;5006682;28;19997;-68
2021/04/16 07:50:43;;;;;;;;;;;;;;;6.47;52.57;102200.78;5039004;28;19921;-67
2021/04/16 07:53:27;;;;;;;;;;;;;;;6.63;52.97;102208.97;5034402;28;19920;-70
2021/04/16 07:56:11;;;;;;;;;;;;;;;6.84;51.46;102208.19;5037468;28;20360;-67
2021/04/16 07:59:10;;;;;;;;;;;;;;;6.75;51.31;102208.88;5053851;28;20237;-69
2021/04/16 08:01:38;;;;;;;;;;;;;;;6.74;51.30;102213.53;5054010;28;19931;-73
2021/04/16 08:04:13;;;;;;;;;;;;;;;6.90;51.07;102213.75;5053523;28;19951;-69
2021/04/16 08:06:42;;;;;;;;;;;;;;;7.17;50.70;102214.66;5053542;28;20360;-69
2021/04/16 08:09:12;;;;;;;;;;;;;;;7.22;50.38;102209.25;5054825;28;20328;-71
2021/04/16 08:11:39;;;;;;;;;;;;;;;7.28;50.25;102216.44;5021134;28;19920;-69
2021/04/16 08:14:19;;;;;;;;;;;;;;;7.23;49.90;102214.47;5036785;28;19921;-69
2021/04/16 08:16:54;;;;;;;;;;;;;;;7.54;49.73;102208.28;5020733;28;19947;-69
2021/04/16 08:19:23;;;;;;;;;;;;;;;7.52;49.56;102201.38;5054617;28;19928;-72
2021/04/16 08:21:52;;;;;;;;;;;;;;;7.62;49.19;102204.22;5053026;28;20027;-69
2021/04/16 08:24:34;;;;;;;;;;;;;;;7.90;48.48;102214.94;5053744;28;19920;-71
2021/04/16 08:27:06;;;;;;;;;;;;;;;7.36;48.33;102218.72;5069316;28;19927;-72
2021/04/16 08:29:36;;;;;;;;;;;;;;;7.58;53.64;102217.63;5035511;28;19928;-68
2021/04/16 08:32:05;;;;;;;;;;;;;;;7.36;48.42;102218.72;5053495;28;19921;-70
2021/04/16 08:34:40;;;;;;;;;;;;;;;7.43;48.83;102224.84;5035976;28;19928;-71
2021/04/16 08:37:14;;;;;;;;;;;;;;;7.72;48.70;102218.06;5020060;28;19932;-72
2021/04/16 08:39:47;;;;;;;;;;;;;;;7.77;47.79;102207.16;5035326;28;19920;-70
2021/04/16 08:42:28;;;;;;;;;;;;;;;7.63;47.92;102204.00;5004639;28;19924;-71
2021/04/16 08:44:57;;;;;;;;;;;;;;;7.73;48.06;102208.75;5035715;28;20372;-70
2021/04/16 08:47:45;;;;;;;;;;;;;;;7.83;47.71;102198.69;5036249;28;20380;-69
2021/04/16 08:50:13;;;;;;;;;;;;;;;8.00;47.05;102209.59;5051155;28;20280;-70
2021/04/16 08:56:51;;;;;;;;;;;;;;;8.45;46.36;102198.19;5053125;28;20350;-68
2021/04/16 08:59:22;;;;;;;;;;;;;;;8.51;45.85;102208.09;5052937;28;20316;-71
2021/04/16 09:01:54;;;;;;;;;;;;;;;8.09;45.65;102204.44;5037002;28;19943;-71
2021/04/16 09:04:34;;;;;;;;;;;;;;;7.97;46.40;102205.44;5036398;28;19921;-71
2021/04/16 09:07:02;;;;;;;;;;;;;;;8.31;45.37;102205.22;5035327;28;20328;-67
2021/04/16 09:13:49;;;;;;;;;;;;;;;8.22;46.04;102191.09;5051681;28;20291;-66
2021/04/16 09:16:42;;;;;;;;;;;;;;;8.24;44.90;102191.72;5049721;28;19921;-72
2021/04/16 09:19:25;;;;;;;;;;;;;;;8.17;45.28;102195.72;5034112;28;19921;-67
2021/04/16 09:22:04;;;;;;;;;;;;;;;8.30;44.77;102187.09;5052259;28;19921;-67
2021/04/16 09:24:48;;;;;;;;;;;;;;;8.14;44.41;102185.28;5052571;28;19928;-69
2021/04/16 09:27:40;;;;;;;;;;;;;;;8.34;42.53;102180.81;5049704;28;19928;-67
2021/04/16 09:30:08;;;;;;;;;;;;;;;8.51;43.51;102183.38;5052848;28;19928;-69
2021/04/16 09:32:39;;;;;;;;;;;;;;;8.64;42.77;102181.03;5053262;28;19928;-69
2021/04/16 09:35:12;;;;;;;;;;;;;;;8.72;43.02;102180.53;5051266;28;20368;-73
2021/04/16 09:37:43;;;;;;;;;;;;;;;8.71;43.35;102180.78;5052779;28;20282;-71
2021/04/16 09:42:49;;;;;;;;;;;;;;;8.91;42.29;102189.97;5052787;28;19921;-73
2021/04/16 09:45:28;;;;;;;;;;;;;;;8.80;42.80;102176.44;5054970;28;20360;-69
2021/04/16 09:47:55;;;;;;;;;;;;;;;9.03;42.05;102195.28;5052006;28;20268;-74
2021/04/16 09:50:44;;;;;;;;;;;;;;;8.99;40.90;102189.47;5019661;28;19920;-70
2021/04/16 09:57:41;;;;;;;;;;;;;;;8.79;39.98;102166.53;5052397;28;19924;-66
2021/04/16 10:00:09;;;;;;;;;;;;;;;8.81;39.77;102170.69;5032955;28;20379;-71
2021/04/16 10:02:37;;;;;;;;;;;;;;;9.14;39.60;102166.72;5034293;28;19920;-69
2021/04/16 10:05:18;;;;;;;;;;;;;;;9.30;39.10;102164.84;5034599;28;20287;-66
2021/04/16 10:07:57;;;;;;;;;;;;;;;9.34;39.50;102176.97;5052029;28;19921;-67
2021/04/16 10:14:31;;;;;;;;;;;;;;;9.33;40.10;102150.59;5051797;28;19940;-68
2021/04/16 10:17:03;;;;;;;;;;;;;;;9.65;39.11;102162.19;5051682;28;20319;-65
2021/04/16 10:19:32;;;;;;;;;;;;;;;9.55;37.70;102167.69;5033727;28;19920;-66
2021/04/16 10:22:18;;;;;;;;;;;;;;;9.43;37.12;102151.41;5033659;28;19921;-63
2021/04/16 12:38:07;;;;;;;;;;;;;;;10.16;34.73;102095.91;5039417;28;19921;-71
2021/04/16 12:44:48;;;;;;;;;;;;;;;9.73;36.21;102101.13;5053661;28;19916;-73
2021/04/16 12:47:19;;;;;;;;;;;;;;;9.93;36.25;102106.66;5017393;28;20310;-70
2021/04/16 12:49:47;;;;;;;;;;;;;;;10.16;36.31;102100.63;5053472;28;19974;-71
2021/04/16 12:52:13;;;;;;;;;;;;;;;10.14;36.02;102092.66;5035355;28;19921;-73
2021/04/16 12:59:12;;;;;;;;;;;;;;;10.29;35.19;102110.25;5053444;28;19924;-68
2021/04/16 13:01:39;;;;;;;;;;;;;;;10.08;35.03;102117.66;5052802;28;20295;-69
2021/04/16 13:04:06;;;;;;;;;;;;;;;10.01;35.46;102100.59;5053450;28;19927;-70
2021/04/16 13:06:34;;;;;;;;;;;;;;;10.00;36.04;102105.28;5053243;28;19920;-67
2021/04/16 13:09:24;;;;;;;;;;;;;;;9.69;36.03;102095.34;5052246;28;19928;-71
2021/04/16 13:16:21;;;;;;;;;;;;;;;10.00;36.20;102113.53;5052626;28;19920;-73
2021/04/16 13:18:49;;;;;;;;;;;;;;;9.74;36.96;102103.63;5053197;28;19930;-72
2021/04/16 13:21:33;;;;;;;;;;;;;;;9.63;36.94;102096.44;5035439;28;19927;-75
2021/04/16 13:24:17;;;;;;;;;;;;;;;9.69;36.64;102091.78;5037223;28;20260;-69
2021/04/16 13:26:44;;;;;;;;;;;;;;;9.65;36.30;102085.19;5052572;28;19925;-71
2021/04/16 13:29:11;;;;;;;;;;;;;;;9.66;36.57;102106.91;5053066;28;19947;-69
2021/04/16 13:31:38;;;;;;;;;;;;;;;9.79;36.53;102095.38;5036695;28;20299;-72
2021/04/16 13:34:05;;;;;;;;;;;;;;;9.94;36.30;102092.59;5054506;28;19920;-73
2021/04/16 13:36:34;;;;;;;;;;;;;;;10.15;35.86;102088.78;5048797;28;19921;-67
2021/04/16 13:39:04;;;;;;;;;;;;;;;9.73;36.36;102084.63;5051075;28;19921;-74
2021/04/16 13:41:35;;;;;;;;;;;;;;;9.88;36.51;102092.91;5053589;28;20261;-73
2021/04/16 13:44:22;;;;;;;;;;;;;;;10.01;36.04;102097.81;5053395;28;19916;-73
2021/04/16 13:46:49;;;;;;;;;;;;;;;10.01;35.79;102087.66;5068949;28;19922;-74
2021/04/16 13:49:20;;;;;;;;;;;;;;;9.96;34.79;102111.59;5035126;28;19920;-75
2021/04/16 13:51:50;;;;;;;;;;;;;;;9.87;34.96;102082.97;5035121;28;19921;-75
2021/04/16 13:54:20;;;;;;;;;;;;;;;9.97;34.90;102071.97;5050690;28;19921;-74
2021/04/16 13:56:48;;;;;;;;;;;;;;;10.05;35.05;102082.41;5052319;28;19932;-73
2021/04/16 13:59:15;;;;;;;;;;;;;;;10.08;34.62;102073.59;5034699;28;20290;-73
2021/04/16 14:01:43;;;;;;;;;;;;;;;9.96;34.16;102073.91;5052296;28;19929;-72
2021/04/16 14:04:11;;;;;;;;;;;;;;;9.94;34.66;102070.59;5034945;28;19921;-70
2021/04/16 14:06:44;;;;;;;;;;;;;;;10.02;34.81;102066.47;5031102;28;20386;-76
2021/04/16 14:09:13;;;;;;;;;;;;;;;10.12;35.16;102067.31;5034321;28;20314;-72
2021/04/16 14:11:39;;;;;;;;;;;;;;;10.11;34.82;102062.09;5019298;28;19921;-71
2021/04/16 14:14:08;;;;;;;;;;;;;;;10.10;34.79;102058.50;5034197;28;20363;-73
2021/04/16 14:16:35;;;;;;;;;;;;;;;10.05;34.57;102065.91;5018824;28;19921;-74
2021/04/16 14:19:05;;;;;;;;;;;;;;;9.99;35.48;102058.75;5052272;28;19921;-76
2021/04/16 14:21:39;;;;;;;;;;;;;;;9.94;35.78;102067.00;5035165;28;19920;-76
2021/04/16 14:24:09;;;;;;;;;;;;;;;9.80;35.89;102069.50;5035123;28;19921;-77
2021/04/16 14:26:56;;;;;;;;;;;;;;;9.79;35.69;102064.28;5050622;28;19920;-75
2021/04/16 14:29:41;;;;;;;;;;;;;;;9.88;35.31;102057.13;5051459;28;19927;-76
2021/04/16 14:32:11;;;;;;;;;;;;;;;9.79;34.68;102050.50;5051320;28;19936;-73
2021/04/16 14:34:41;;;;;;;;;;;;;;;9.78;34.82;102046.13;5034968;28;19948;-71
2021/04/16 14:37:08;;;;;;;;;;;;;;;9.79;34.46;102056.00;5034685;28;19920;-77
2021/04/16 14:39:35;;;;;;;;;;;;;;;9.74;34.69;102051.34;5050248;28;19921;-70
2021/04/16 14:42:03;;;;;;;;;;;;;;;9.70;34.41;102057.66;5068634;28;19921;-73
2021/04/16 14:44:29;;;;;;;;;;;;;;;9.51;35.11;102040.88;5056061;28;19928;-71
2021/04/16 14:46:56;;;;;;;;;;;;;;;9.79;34.96;102037.59;5056494;28;20401;-72
2021/04/16 14:49:27;;;;;;;;;;;;;;;9.77;35.08;102030.69;5037966;28;19921;-68
2021/04/16 14:51:54;;;;;;;;;;;;;;;9.82;34.99;102045.28;5054455;28;19927;-75
2021/04/16 14:54:28;;;;;;;;;;;;;;;9.76;35.20;102035.38;5038822;28;19921;-70
2021/04/16 14:56:55;;;;;;;;;;;;;;;9.81;35.28;102035.38;5038460;28;20271;-70
2021/04/16 14:59:41;;;;;;;;;;;;;;;9.75;35.22;102027.38;5056308;28;19923;-73
2021/04/16 15:02:08;;;;;;;;;;;;;;;10.05;34.68;102032.88;5037061;28;19921;-71
2021/04/16 15:04:35;;;;;;;;;;;;;;;10.05;34.16;102030.94;5054068;28;19928;-75
2021/04/16 15:07:03;;;;;;;;;;;;;;;9.97;34.47;102026.00;5020918;28;19927;-73
2021/04/16 15:09:38;;;;;;;;;;;;;;;9.81;34.45;102020.78;5055021;28;19921;-75
2021/04/16 15:12:09;;;;;;;;;;;;;;;9.86;34.43;102023.53;5056108;28;19921;-68
2021/04/16 15:14:35;;;;;;;;;;;;;;;9.93;34.32;102007.56;5039067;28;19920;-73
2021/04/16 15:17:02;;;;;;;;;;;;;;;9.93;34.51;102013.06;5055636;28;19921;-71
2021/04/16 15:19:35;;;;;;;;;;;;;;;10.08;34.44;102010.28;5035896;28;19931;-71
2021/04/16 15:22:03;;;;;;;;;;;;;;;10.15;34.33;102008.94;5037271;28;19920;-73
2021/04/16 15:24:30;;;;;;;;;;;;;;;10.23;34.39;102001.19;5054561;28;20390;-74
2021/04/16 15:27:00;;;;;;;;;;;;;;;10.06;34.56;102007.81;5037307;28;19921;-69
2021/04/16 15:29:29;;;;;;;;;;;;;;;10.19;34.69;102007.28;5054146;28;19928;-74
2021/04/16 15:31:56;;;;;;;;;;;;;;;10.18;34.79;101997.34;5037145;28;19944;-76
2021/04/16 15:48:10;;;;;;;;;;;;;;;10.00;35.62;102003.44;5036577;28;19927;-72
2021/04/16 15:50:42;;;;;;;;;;;;;;;10.07;35.55;102014.97;5053251;28;20263;-75
2021/04/16 15:53:13;;;;;;;;;;;;;;;9.87;35.99;102012.25;5035986;28;19936;-75
2021/04/16 15:55:40;;;;;;;;;;;;;;;10.01;35.57;102009.75;5054466;28;20251;-69
2021/04/16 15:58:10;;;;;;;;;;;;;;;9.93;35.35;102010.31;5054242;28;20323;-70
2021/04/16 16:00:57;;;;;;;;;;;;;;;9.77;35.53;101998.50;5051498;28;20275;-74
2021/04/16 16:03:24;;;;;;;;;;;;;;;9.91;35.54;102004.25;5035111;28;19928;-71
2021/04/16 16:05:57;;;;;;;;;;;;;;;9.87;35.73;102008.66;5050790;28;20007;-73
2021/04/16 16:08:25;;;;;;;;;;;;;;;9.83;35.68;102002.88;5053605;28;20264;-74
2021/04/16 16:10:54;;;;;;;;;;;;;;;9.84;35.81;102003.72;5035825;28;19931;-74
2021/04/16 16:13:36;;;;;;;;;;;;;;;9.95;36.00;102002.63;5053091;28;20113;-74
2021/04/16 16:16:20;;;;;;;;;;;;;;;9.85;35.86;102008.94;5035348;28;20303;-75